Time;durP1;ratioP1;P1;durP2;ratioP2;P2;SDS_P1;SDS_P2;PMS_P1;PMS_P2;Temp;Humidity;BMP_temperature;BMP_pressure;BME280_temperature;BME280_humidity;BME280_pressure;Samples;Min_cycle;Max_cycle;Signal;HPM_P1;HPM_P2
2023/06/27 00:01:10;;;;;;;5.45;2.83;;;;;20.40;96500.00;;;;8254489;28;20696;-62
2023/06/27 00:05:15;;;;;;;7.63;2.85;;;;;20.30;96504.00;;;;8263383;28;20326;-64
2023/06/27 00:09:22;;;;;;;5.95;3.05;;;;;20.30;96507.00;;;;8259562;28;20249;-63
2023/06/27 00:13:25;;;;;;;4.93;3.10;;;;;20.20;96513.00;;;;8259098;28;20301;-62
2023/06/27 00:17:28;;;;;;;3.72;2.90;;;;;20.20;96505.00;;;;8247666;28;20206;-63
2023/06/27 00:21:32;;;;;;;7.53;2.95;;;;;20.10;96509.00;;;;8261733;28;20230;-63
2023/06/27 00:25:37;;;;;;;6.82;3.00;;;;;20.00;96514.00;;;;8262067;28;21065;-63
2023/06/27 00:29:41;;;;;;;6.03;2.80;;;;;20.00;96509.00;;;;8249803;28;20214;-63
2023/06/27 00:33:53;;;;;;;4.13;2.83;;;;;19.90;96502.00;;;;8258061;28;20302;-63
2023/06/27 00:37:56;;;;;;;4.88;3.53;;;;;19.80;96510.00;;;;8248731;28;20203;-62
2023/06/27 00:42:01;;;;;;;5.70;3.03;;;;;19.80;96511.00;;;;8243477;28;20226;-62
2023/06/27 00:46:09;;;;;;;6.35;2.90;;;;;19.80;96514.00;;;;8256825;28;20574;-62
2023/06/27 00:50:15;;;;;;;5.20;2.85;;;;;19.70;96512.00;;;;8244141;28;20296;-62
2023/06/27 00:54:24;;;;;;;6.93;3.05;;;;;19.70;96520.00;;;;8255321;28;20226;-62
2023/06/27 00:58:29;;;;;;;8.13;3.20;;;;;19.60;96520.00;;;;8252004;28;20206;-62
2023/06/27 01:02:32;;;;;;;7.82;3.00;;;;;19.60;96525.00;;;;8261040;28;20244;-63
2023/06/27 01:06:44;;;;;;;4.65;2.90;;;;;19.60;96520.00;;;;8256896;28;20261;-62
2023/06/27 01:10:57;;;;;;;6.07;3.00;;;;;19.50;96522.00;;;;8236810;28;20202;-61
2023/06/27 01:15:07;;;;;;;6.25;2.72;;;;;19.40;96533.00;;;;8254404;28;20672;-61
2023/06/27 01:19:12;;;;;;;6.63;3.20;;;;;19.40;96526.00;;;;8254786;28;20199;-63
2023/06/27 01:23:23;;;;;;;3.67;2.92;;;;;19.30;96534.00;;;;8248006;28;20226;-62
2023/06/27 01:27:30;;;;;;;12.32;3.22;;;;;19.30;96536.00;;;;8254716;28;20286;-63
2023/06/27 01:31:39;;;;;;;5.25;2.95;;;;;19.30;96536.00;;;;8258968;28;20636;-61
2023/06/27 01:35:48;;;;;;;10.48;3.13;;;;;19.30;96540.00;;;;8249268;28;20207;-62
2023/06/27 01:39:57;;;;;;;4.97;3.10;;;;;19.30;96538.00;;;;8248742;28;20209;-62
2023/06/27 01:44:06;;;;;;;4.65;2.45;;;;;19.20;96540.00;;;;8241248;28;20195;-62
2023/06/27 01:48:12;;;;;;;6.28;2.97;;;;;19.20;96548.00;;;;8251504;28;20194;-62
2023/06/27 01:52:20;;;;;;;7.68;2.80;;;;;19.10;96551.00;;;;8248145;28;20222;-61
2023/06/27 01:56:27;;;;;;;2.90;2.70;;;;;19.00;96548.00;;;;8246103;28;20534;-62
2023/06/27 02:00:32;;;;;;;5.57;2.50;;;;;18.90;96546.00;;;;8237990;28;20235;-62
2023/06/27 02:04:44;;;;;;;2.92;2.60;;;;;18.80;96546.00;;;;8250056;28;20226;-63
2023/06/27 02:08:49;;;;;;;2.45;2.22;;;;;18.80;96545.00;;;;8253986;28;20400;-62
2023/06/27 02:12:53;;;;;;;7.82;2.88;;;;;18.70;96546.00;;;;8248953;28;20195;-62
2023/06/27 02:16:58;;;;;;;7.05;2.30;;;;;18.70;96551.00;;;;8235597;28;20286;-62
2023/06/27 02:21:03;;;;;;;3.13;2.25;;;;;18.60;96548.00;;;;8255087;28;20227;-62
2023/06/27 02:25:11;;;;;;;7.05;2.70;;;;;18.60;96557.00;;;;8258926;28;20854;-61
2023/06/27 02:29:18;;;;;;;4.43;2.20;;;;;18.50;96563.00;;;;8253439;28;20230;-62
2023/06/27 02:33:22;;;;;;;7.38;2.47;;;;;18.50;96562.00;;;;8246679;28;20199;-63
2023/06/27 02:37:26;;;;;;;6.50;2.30;;;;;18.40;96571.00;;;;8252222;28;20671;-62
2023/06/27 02:41:33;;;;;;;3.20;2.20;;;;;18.40;96561.00;;;;8246816;28;20262;-62
2023/06/27 02:45:38;;;;;;;4.25;2.00;;;;;18.40;96562.00;;;;8248721;28;20720;-62
2023/06/27 02:49:45;;;;;;;2.53;2.05;;;;;18.40;96571.00;;;;8255437;28;20610;-62
2023/06/27 02:53:50;;;;;;;2.65;2.20;;;;;18.50;96578.00;;;;8241086;28;20203;-61
2023/06/27 02:57:53;;;;;;;4.10;2.13;;;;;18.50;96574.00;;;;8234590;28;20214;-61
2023/06/27 03:01:57;;;;;;;4.72;2.30;;;;;18.50;96578.00;;;;8279433;23;20229;-61
2023/06/27 03:06:08;;;;;;;11.52;2.17;;;;;18.50;96587.00;;;;8242236;28;20208;-62
2023/06/27 03:10:15;;;;;;;3.55;1.80;;;;;18.50;96580.00;;;;8241273;28;20246;-61
2023/06/27 03:14:19;;;;;;;6.85;1.98;;;;;18.60;96591.00;;;;8251295;28;20217;-61
2023/06/27 03:18:23;;;;;;;2.55;1.83;;;;;18.60;96593.00;;;;8240831;28;20190;-61
2023/06/27 03:22:27;;;;;;;3.40;2.20;;;;;18.70;96590.00;;;;8248825;28;20242;-62
2023/06/27 03:26:30;;;;;;;3.75;1.70;;;;;18.70;96591.00;;;;8251712;28;20210;-61
2023/06/27 03:30:33;;;;;;;2.65;1.98;;;;;18.70;96600.00;;;;8238250;28;20200;-62
2023/06/27 03:34:37;;;;;;;4.15;1.70;;;;;18.70;96594.00;;;;8251846;28;20298;-62
2023/06/27 03:38:44;;;;;;;5.70;1.90;;;;;18.70;96597.00;;;;8239416;28;20206;-62
2023/06/27 03:42:48;;;;;;;5.00;1.90;;;;;18.70;96601.00;;;;8247211;28;20733;-63
2023/06/27 03:46:51;;;;;;;3.30;1.67;;;;;18.70;96600.00;;;;8251875;28;20203;-63
2023/06/27 03:50:54;;;;;;;5.35;1.80;;;;;18.80;96597.00;;;;8241208;28;20234;-62
2023/06/27 03:55:00;;;;;;;3.53;2.03;;;;;18.80;96606.00;;;;8242205;28;20217;-63
2023/06/27 03:59:07;;;;;;;5.45;2.20;;;;;18.80;96600.00;;;;8236665;28;20198;-65
2023/06/27 04:03:13;;;;;;;4.10;1.88;;;;;18.80;96612.00;;;;8234238;28;20227;-63
2023/06/27 04:07:16;;;;;;;2.22;1.88;;;;;18.80;96616.00;;;;8218157;28;20204;-63
2023/06/27 04:11:23;;;;;;;5.70;2.05;;;;;18.80;96617.00;;;;8223052;28;20669;-63
2023/06/27 04:15:29;;;;;;;4.97;1.80;;;;;18.90;96612.00;;;;8221885;28;20227;-62
2023/06/27 04:19:34;;;;;;;2.70;2.00;;;;;18.90;96629.00;;;;8222390;28;20302;-63
2023/06/27 04:23:37;;;;;;;3.53;1.67;;;;;19.00;96625.00;;;;8217687;28;20321;-63
2023/06/27 04:27:45;;;;;;;5.57;2.10;;;;;19.10;96626.00;;;;8218087;28;20226;-65
2023/06/27 04:31:48;;;;;;;2.10;1.90;;;;;19.20;96624.00;;;;8220173;28;20218;-64
2023/06/27 04:35:54;;;;;;;1.95;1.80;;;;;19.20;96630.00;;;;8223271;28;20247;-65
2023/06/27 04:39:59;;;;;;;7.00;2.28;;;;;19.40;96634.00;;;;8224415;28;20210;-63
2023/06/27 04:44:04;;;;;;;6.13;1.80;;;;;19.50;96637.00;;;;8220294;28;20227;-62
2023/06/27 04:48:08;;;;;;;4.57;1.95;;;;;19.70;96641.00;;;;8229052;28;20204;-62
2023/06/27 04:52:12;;;;;;;4.55;1.90;;;;;19.70;96649.00;;;;8233003;28;20709;-63
2023/06/27 04:56:16;;;;;;;5.05;1.92;;;;;19.80;96650.00;;;;8228926;28;20787;-64
2023/06/27 05:00:21;;;;;;;3.53;1.70;;;;;19.80;96654.00;;;;8230676;28;20203;-63
2023/06/27 05:04:26;;;;;;;4.07;1.70;;;;;19.80;96658.00;;;;8223232;28;20314;-63
2023/06/27 05:08:29;;;;;;;2.67;1.88;;;;;19.80;96658.00;;;;8221161;28;20259;-64
2023/06/27 05:12:34;;;;;;;3.40;2.00;;;;;20.00;96660.00;;;;8234565;28;20214;-63
2023/06/27 05:16:38;;;;;;;4.30;1.80;;;;;20.10;96671.00;;;;8222743;28;20210;-63
2023/06/27 05:20:45;;;;;;;8.48;2.08;;;;;20.20;96670.00;;;;8222669;28;20211;-63
2023/06/27 05:24:51;;;;;;;3.22;1.85;;;;;20.10;96664.00;;;;8231867;28;20257;-65
2023/06/27 05:28:57;;;;;;;2.65;1.60;;;;;20.30;96668.00;;;;8226656;28;20199;-64
2023/06/27 05:33:03;;;;;;;2.22;1.60;;;;;20.40;96674.00;;;;8223633;28;20194;-64
2023/06/27 05:37:08;;;;;;;8.13;2.15;;;;;20.40;96678.00;;;;8224434;28;20290;-64
2023/06/27 05:41:17;;;;;;;3.55;1.80;;;;;20.20;96677.00;;;;8225616;28;20291;-65
2023/06/27 05:45:22;;;;;;;5.57;1.60;;;;;20.20;96686.00;;;;8236511;28;20232;-64
2023/06/27 05:49:27;;;;;;;3.42;1.80;;;;;20.20;96683.00;;;;8231105;28;20894;-65
2023/06/27 05:53:32;;;;;;;2.92;2.13;;;;;20.30;96683.00;;;;8234666;28;20298;-65
2023/06/27 05:57:35;;;;;;;6.05;1.80;;;;;20.30;96680.00;;;;8243367;28;20195;-67
2023/06/27 06:01:39;;;;;;;2.33;1.60;;;;;20.20;96681.00;;;;8225414;28;20645;-63
2023/06/27 06:05:49;;;;;;;3.03;1.80;;;;;20.30;96683.00;;;;8223635;28;20200;-64
2023/06/27 06:09:55;;;;;;;5.43;2.00;;;;;20.40;96684.00;;;;8233330;28;20222;-64
2023/06/27 06:14:01;;;;;;;7.32;1.80;;;;;20.40;96695.00;;;;8235100;28;20283;-65
2023/06/27 06:18:04;;;;;;;2.80;1.88;;;;;20.40;96693.00;;;;8233172;28;20385;-65
2023/06/27 06:22:09;;;;;;;5.72;1.92;;;;;20.50;96700.00;;;;8231771;28;20278;-64
2023/06/27 06:26:12;;;;;;;3.95;2.00;;;;;20.90;96702.00;;;;8225696;28;20199;-63
2023/06/27 06:30:18;;;;;;;3.45;2.05;;;;;21.00;96708.00;;;;8224099;28;20278;-64
2023/06/27 06:34:25;;;;;;;2.95;1.63;;;;;21.00;96698.00;;;;8224243;28;20223;-63
2023/06/27 06:38:32;;;;;;;6.60;2.00;;;;;21.30;96695.00;;;;8232913;28;20254;-63
2023/06/27 06:42:35;;;;;;;7.00;1.65;;;;;22.10;96696.00;;;;8229515;28;20343;-65
2023/06/27 06:46:40;;;;;;;4.75;2.28;;;;;21.80;96702.00;;;;8226625;28;20251;-63
2023/06/27 06:50:45;;;;;;;4.95;2.00;;;;;21.50;96709.00;;;;8220711;28;20645;-63
2023/06/27 06:54:49;;;;;;;2.92;1.65;;;;;21.40;96713.00;;;;8230809;28;20222;-63
2023/06/27 06:58:57;;;;;;;2.45;1.70;;;;;21.60;96721.00;;;;8227164;28;20201;-64
2023/06/27 07:03:08;;;;;;;5.30;1.70;;;;;21.40;96719.00;;;;8228031;28;20396;-64
2023/06/27 07:07:14;;;;;;;2.47;1.70;;;;;21.40;96723.00;;;;8233069;28;20199;-63
2023/06/27 07:11:25;;;;;;;1.63;1.52;;;;;21.40;96722.00;;;;8229830;28;20199;-64
2023/06/27 07:15:30;;;;;;;5.57;2.05;;;;;21.50;96722.00;;;;8224262;28;20209;-64
2023/06/27 07:19:33;;;;;;;3.03;1.90;;;;;21.10;96725.00;;;;8231934;28;20282;-63
2023/06/27 07:23:37;;;;;;;2.50;1.45;;;;;21.20;96744.00;;;;8226451;28;20226;-65
2023/06/27 07:27:43;;;;;;;6.28;1.80;;;;;21.30;96727.00;;;;8217205;28;20342;-63
2023/06/27 07:31:47;;;;;;;1.83;1.40;;;;;21.30;96718.00;;;;8215870;28;20203;-63
2023/06/27 07:35:54;;;;;;;2.67;1.50;;;;;21.30;96725.00;;;;8219486;28;20747;-63
2023/06/27 07:39:58;;;;;;;4.63;1.70;;;;;21.50;96733.00;;;;8216018;28;20214;-64
2023/06/27 07:44:02;;;;;;;2.90;1.88;;;;;21.80;96724.00;;;;8217562;28;20282;-64
2023/06/27 07:48:08;;;;;;;3.67;1.50;;;;;22.00;96721.00;;;;8214958;28;20283;-63
2023/06/27 07:52:11;;;;;;;13.77;2.25;;;;;22.00;96716.00;;;;8220595;28;20290;-63
2023/06/27 07:56:15;;;;;;;2.70;1.50;;;;;22.00;96722.00;;;;8224142;28;20302;-63
2023/06/27 08:00:22;;;;;;;3.20;1.42;;;;;22.10;96723.00;;;;8224258;28;20641;-63
2023/06/27 08:04:26;;;;;;;4.93;1.60;;;;;21.80;96725.00;;;;8233093;28;20338;-64
2023/06/27 08:08:36;;;;;;;1.95;1.38;;;;;21.50;96728.00;;;;8225477;28;20229;-63
2023/06/27 08:12:43;;;;;;;3.88;1.60;;;;;21.30;96723.00;;;;8227370;28;20245;-63
2023/06/27 08:16:50;;;;;;;4.10;1.67;;;;;21.30;96717.00;;;;8207108;28;20226;-64
2023/06/27 08:20:53;;;;;;;3.70;1.73;;;;;21.30;96722.00;;;;8232667;28;20197;-63
2023/06/27 08:24:59;;;;;;;2.50;1.67;;;;;21.10;96722.00;;;;8233497;28;20230;-63
2023/06/27 08:29:08;;;;;;;6.68;1.85;;;;;20.90;96713.00;;;;8233320;28;20641;-63
2023/06/27 08:33:14;;;;;;;3.03;1.70;;;;;21.00;96726.00;;;;8233990;28;20318;-64
2023/06/27 08:37:21;;;;;;;2.53;1.80;;;;;21.00;96725.00;;;;8228679;28;20632;-64
2023/06/27 08:41:29;;;;;;;5.55;1.95;;;;;20.80;96716.00;;;;8224527;28;20203;-63
2023/06/27 08:45:35;;;;;;;3.85;2.10;;;;;20.80;96711.00;;;;8227399;28;20759;-64
2023/06/27 08:49:46;;;;;;;3.15;1.80;;;;;21.10;96706.00;;;;8231726;28;20203;-64
2023/06/27 08:54:00;;;;;;;5.13;1.52;;;;;21.20;96720.00;;;;8226906;28;20196;-64
2023/06/27 08:58:09;;;;;;;4.00;1.80;;;;;21.50;96713.00;;;;8230405;28;20556;-66
2023/06/27 09:02:15;;;;;;;2.08;1.52;;;;;21.90;96712.00;;;;8224228;28;20238;-64
2023/06/27 09:06:23;;;;;;;1.80;1.70;;;;;22.00;96701.00;;;;8230682;28;21206;-63
2023/06/27 09:10:27;;;;;;;5.65;1.67;;;;;22.20;96712.00;;;;8228341;28;20303;-64
2023/06/27 09:14:33;;;;;;;3.03;1.70;;;;;22.20;96709.00;;;;8228184;28;20238;-64
2023/06/27 09:18:38;;;;;;;3.42;1.60;;;;;22.40;96708.00;;;;8230904;28;20199;-64
2023/06/27 09:22:44;;;;;;;3.50;1.55;;;;;22.90;96701.00;;;;8231458;28;20214;-63
2023/06/27 09:26:47;;;;;;;4.32;1.60;;;;;23.40;96701.00;;;;8226868;28;20203;-64
2023/06/27 09:30:57;;;;;;;2.60;1.77;;;;;23.90;96704.00;;;;8231814;28;20207;-64
2023/06/27 09:35:04;;;;;;;5.32;1.80;;;;;24.10;96704.00;;;;8233739;28;20188;-63
2023/06/27 09:39:15;;;;;;;2.28;2.00;;;;;24.10;96718.00;;;;8230301;28;20187;-65
2023/06/27 09:43:21;;;;;;;1.80;1.70;;;;;24.80;96706.00;;;;8238330;28;20932;-64
2023/06/27 09:47:25;;;;;;;3.67;1.77;;;;;25.20;96698.00;;;;8228923;28;20206;-64
2023/06/27 09:51:30;;;;;;;3.10;1.70;;;;;25.70;96701.00;;;;8232568;28;20210;-65
2023/06/27 09:55:34;;;;;;;1.73;1.63;;;;;26.30;96695.00;;;;8232685;28;20557;-64
2023/06/27 09:59:37;;;;;;;3.00;1.50;;;;;26.90;96688.00;;;;8236584;28;20210;-65
2023/06/27 10:03:48;;;;;;;1.98;1.38;;;;;27.00;96694.00;;;;8228134;28;20310;-65
2023/06/27 10:07:55;;;;;;;2.17;1.80;;;;;27.40;96696.00;;;;8229257;28;20238;-65
2023/06/27 10:12:00;;;;;;;5.22;1.73;;;;;27.10;96700.00;;;;8226302;28;20294;-65
2023/06/27 10:16:03;;;;;;;1.98;1.77;;;;;26.90;96701.00;;;;8227947;28;20626;-63
2023/06/27 10:20:11;;;;;;;4.05;1.88;;;;;27.50;96686.00;;;;8233226;28;20199;-64
2023/06/27 10:24:15;;;;;;;5.35;2.00;;;;;28.30;96683.00;;;;8232277;28;20958;-65
2023/06/27 10:28:21;;;;;;;2.50;1.52;;;;;28.90;96690.00;;;;8233031;28;20206;-65
2023/06/27 10:32:39;;;;;;;4.18;1.58;;;;;28.40;96683.00;;;;8226475;28;20613;-65
2023/06/27 10:37:10;;;;;;;2.85;1.70;;;;;28.80;96688.00;;;;8223365;28;20223;-65
2023/06/27 10:41:24;;;;;;;2.15;1.58;;;;;29.20;96693.00;;;;8213669;28;20195;-64
2023/06/27 10:45:29;;;;;;;3.80;1.75;;;;;28.60;96700.00;;;;8228359;28;20212;-64
2023/06/27 10:49:37;;;;;;;4.28;2.03;;;;;28.30;96688.00;;;;8227913;28;20200;-65
2023/06/27 10:53:43;;;;;;;3.17;1.60;;;;;27.90;96681.00;;;;8226699;28;20211;-65
2023/06/27 10:57:49;;;;;;;8.18;1.80;;;;;28.10;96673.00;;;;8229588;28;20225;-66
2023/06/27 11:02:04;;;;;;;1.90;1.70;;;;;28.90;96692.00;;;;8233340;28;20802;-66
2023/06/27 11:06:08;;;;;;;2.95;1.33;;;;;28.70;96678.00;;;;8225795;28;20263;-64
2023/06/27 11:10:23;;;;;;;2.20;1.65;;;;;28.80;96686.00;;;;8232467;28;20203;-63
2023/06/27 11:14:40;;;;;;;5.43;1.60;;;;;28.70;96691.00;;;;8232322;28;20647;-65
2023/06/27 11:18:44;;;;;;;2.08;1.83;;;;;29.00;96683.00;;;;8233962;28;20198;-63
2023/06/27 11:22:48;;;;;;;1.80;1.70;;;;;28.40;96684.00;;;;8216700;28;20284;-63
2023/06/27 11:26:54;;;;;;;2.05;1.80;;;;;28.40;96679.00;;;;8217254;28;20231;-64
2023/06/27 11:31:01;;;;;;;3.90;2.15;;;;;28.50;96683.00;;;;8217249;28;20235;-64
2023/06/27 11:35:09;;;;;;;3.15;2.28;;;;;28.00;96676.00;;;;8219343;28;20294;-63
2023/06/27 11:39:13;;;;;;;3.42;2.25;;;;;28.20;96678.00;;;;8214284;28;20257;-65
2023/06/27 11:43:16;;;;;;;2.10;1.90;;;;;28.80;96677.00;;;;8220549;28;20222;-64
2023/06/27 11:47:20;;;;;;;4.65;1.95;;;;;29.30;96683.00;;;;8220208;28;20292;-64
2023/06/27 11:51:45;;;;;;;4.82;1.90;;;;;28.90;96668.00;;;;8213146;28;20218;-64
2023/06/27 11:55:51;;;;;;;4.75;1.98;;;;;29.20;96664.00;;;;8216946;28;20285;-65
2023/06/27 12:00:22;;;;;;;3.72;1.80;;;;;29.90;96661.00;;;;8219837;28;20261;-64
2023/06/27 12:04:31;;;;;;;2.33;1.63;;;;;29.70;96656.00;;;;8230981;28;20644;-65
2023/06/27 12:08:46;;;;;;;2.38;1.70;;;;;29.00;96661.00;;;;8219385;28;20211;-64
2023/06/27 12:12:51;;;;;;;2.78;2.28;;;;;28.40;96650.00;;;;8229897;28;20266;-64
2023/06/27 12:16:55;;;;;;;4.70;1.88;;;;;28.20;96652.00;;;;8228475;28;20202;-64
2023/06/27 12:21:00;;;;;;;4.78;1.88;;;;;28.20;96638.00;;;;8224452;28;20699;-64
2023/06/27 12:25:08;;;;;;;2.47;1.45;;;;;28.50;96625.00;;;;8226397;28;20223;-63
2023/06/27 12:29:11;;;;;;;2.35;1.60;;;;;28.40;96625.00;;;;8236210;28;20286;-64
2023/06/27 12:33:15;;;;;;;2.60;1.85;;;;;27.90;96607.00;;;;8229200;28;20377;-64
2023/06/27 12:37:18;;;;;;;1.85;1.73;;;;;27.70;96624.00;;;;8229075;28;20283;-65
2023/06/27 12:41:28;;;;;;;1.60;1.50;;;;;27.20;96624.00;;;;8228053;28;20239;-65
2023/06/27 12:45:36;;;;;;;4.05;1.63;;;;;27.20;96614.00;;;;8224857;28;20231;-64
2023/06/27 12:49:46;;;;;;;3.10;1.70;;;;;27.10;96611.00;;;;8221184;28;20195;-64
2023/06/27 12:53:56;;;;;;;3.20;1.92;;;;;27.00;96605.00;;;;8223520;28;20218;-64
2023/06/27 12:58:01;;;;;;;5.30;1.98;;;;;26.70;96606.00;;;;8227944;28;20286;-64
2023/06/27 13:02:04;;;;;;;1.60;1.50;;;;;26.90;96611.00;;;;8225717;28;20315;-64
2023/06/27 13:06:07;;;;;;;2.58;1.50;;;;;26.80;96615.00;;;;8229984;28;20231;-65
2023/06/27 13:10:12;;;;;;;2.28;1.70;;;;;26.80;96597.00;;;;8231182;28;20207;-64
2023/06/27 13:14:18;;;;;;;3.10;1.38;;;;;26.90;96598.00;;;;8231988;28;20199;-64
2023/06/27 13:18:22;;;;;;;2.03;1.65;;;;;26.80;96592.00;;;;8233826;28;20292;-64
2023/06/27 13:22:28;;;;;;;3.30;1.63;;;;;27.10;96591.00;;;;8231201;28;20218;-64
2023/06/27 13:26:31;;;;;;;1.65;1.50;;;;;27.40;96593.00;;;;8230264;28;20269;-64
2023/06/27 13:30:36;;;;;;;2.45;1.70;;;;;27.70;96588.00;;;;8230658;28;20210;-64
2023/06/27 13:34:39;;;;;;;1.80;1.70;;;;;28.20;96587.00;;;;8235764;28;20207;-64
2023/06/27 13:38:42;;;;;;;1.60;1.50;;;;;28.30;96580.00;;;;8222061;28;20203;-64
2023/06/27 13:42:45;;;;;;;5.28;2.00;;;;;28.60;96586.00;;;;8225041;28;20218;-64
2023/06/27 13:46:54;;;;;;;3.75;2.00;;;;;28.00;96576.00;;;;8237787;28;20234;-64
2023/06/27 13:50:59;;;;;;;3.45;1.83;;;;;27.60;96581.00;;;;8232084;28;20199;-63
2023/06/27 13:55:02;;;;;;;4.65;1.63;;;;;27.50;96573.00;;;;8220439;28;21710;-64
2023/06/27 13:59:05;;;;;;;4.82;1.60;;;;;27.90;96572.00;;;;8237970;28;20267;-66
2023/06/27 14:03:10;;;;;;;2.38;1.70;;;;;27.80;96561.00;;;;8232536;28;20224;-65
2023/06/27 14:07:15;;;;;;;2.63;1.52;;;;;28.00;96561.00;;;;8224012;28;20318;-64
2023/06/27 14:11:19;;;;;;;3.63;1.92;;;;;28.20;96555.00;;;;8232034;28;20207;-64
2023/06/27 14:15:23;;;;;;;2.22;1.58;;;;;28.20;96555.00;;;;8234647;28;20231;-65
2023/06/27 14:19:28;;;;;;;3.78;1.70;;;;;27.70;96540.00;;;;8228262;28;20238;-64
2023/06/27 14:23:31;;;;;;;3.30;1.65;;;;;27.00;96546.00;;;;8230721;28;20291;-64
2023/06/27 14:27:38;;;;;;;4.95;1.88;;;;;26.50;96546.00;;;;8219106;28;20253;-65
2023/06/27 14:31:43;;;;;;;3.83;1.73;;;;;26.20;96547.00;;;;8213641;28;20199;-65
2023/06/27 14:35:47;;;;;;;2.05;1.90;;;;;26.00;96539.00;;;;8215041;28;20211;-63
2023/06/27 14:39:51;;;;;;;3.88;1.70;;;;;26.40;96535.00;;;;8218057;28;20663;-65
2023/06/27 14:43:54;;;;;;;2.42;1.67;;;;;26.90;96535.00;;;;8215786;28;20207;-63
2023/06/27 14:48:00;;;;;;;3.95;1.80;;;;;26.80;96537.00;;;;8222306;28;20227;-64
2023/06/27 14:52:13;;;;;;;3.60;1.63;;;;;26.70;96532.00;;;;8222314;28;20973;-64
2023/06/27 14:56:22;;;;;;;1.73;1.63;;;;;26.90;96525.00;;;;8221377;28;20716;-63
2023/06/27 15:00:33;;;;;;;4.07;1.90;;;;;26.90;96528.00;;;;8218488;28;20219;-64
2023/06/27 15:04:36;;;;;;;4.13;1.98;;;;;26.80;96530.00;;;;8221140;28;20249;-63
2023/06/27 15:08:41;;;;;;;3.35;1.70;;;;;26.70;96530.00;;;;8213907;28;20234;-65
2023/06/27 15:12:47;;;;;;;4.57;2.10;;;;;26.50;96513.00;;;;8212606;28;20217;-63
2023/06/27 15:16:50;;;;;;;2.85;1.65;;;;;26.30;96520.00;;;;8220847;28;20200;-63
2023/06/27 15:20:54;;;;;;;2.15;1.80;;;;;26.20;96521.00;;;;8222206;28;20630;-63
2023/06/27 15:24:58;;;;;;;4.32;1.70;;;;;26.50;96527.00;;;;8218965;28;20287;-63
2023/06/27 15:29:03;;;;;;;4.13;1.70;;;;;26.80;96518.00;;;;8222793;28;20286;-64
2023/06/27 15:33:07;;;;;;;1.80;1.70;;;;;27.10;96517.00;;;;8220236;28;20242;-63
2023/06/27 15:37:11;;;;;;;2.17;1.67;;;;;27.40;96494.00;;;;8217439;28;20586;-64
2023/06/27 15:41:15;;;;;;;1.70;1.60;;;;;27.90;96488.00;;;;8231811;28;20200;-63
2023/06/27 15:45:19;;;;;;;2.60;1.70;;;;;28.10;96496.00;;;;8220257;28;20286;-63
2023/06/27 15:49:22;;;;;;;4.53;1.70;;;;;28.10;96486.00;;;;8218138;28;20279;-63
2023/06/27 15:53:28;;;;;;;4.85;1.90;;;;;28.00;96492.00;;;;8218739;28;20669;-64
2023/06/27 15:57:37;;;;;;;2.65;1.83;;;;;28.00;96485.00;;;;8221414;28;20622;-64
2023/06/27 16:01:50;;;;;;;3.00;1.80;;;;;28.20;96489.00;;;;8219303;28;20314;-65
2023/06/27 16:05:54;;;;;;;1.80;1.70;;;;;28.30;96486.00;;;;8221870;28;20223;-63
2023/06/27 16:10:04;;;;;;;4.93;1.92;;;;;28.40;96480.00;;;;8217466;28;20214;-64
2023/06/27 16:14:12;;;;;;;1.83;1.40;;;;;28.60;96468.00;;;;8220748;28;20636;-63
2023/06/27 16:18:16;;;;;;;2.75;1.70;;;;;28.90;96466.00;;;;8222521;28;20823;-64
2023/06/27 16:22:19;;;;;;;1.88;1.70;;;;;29.10;96466.00;;;;8221860;28;20207;-62
2023/06/27 16:26:23;;;;;;;4.13;1.98;;;;;28.90;96455.00;;;;8217503;28;20231;-63
2023/06/27 16:30:28;;;;;;;4.38;1.73;;;;;28.40;96461.00;;;;8222205;28;20270;-63
2023/06/27 16:34:38;;;;;;;2.85;1.85;;;;;28.20;96471.00;;;;8221380;28;20808;-63
2023/06/27 16:38:41;;;;;;;1.92;1.83;;;;;28.10;96464.00;;;;8222712;28;20861;-63
2023/06/27 16:42:45;;;;;;;1.85;1.75;;;;;28.30;96451.00;;;;8227946;28;20209;-63
2023/06/27 16:46:53;;;;;;;1.98;1.75;;;;;28.80;96454.00;;;;8224537;28;20700;-63
2023/06/27 16:50:58;;;;;;;1.80;1.70;;;;;29.10;96453.00;;;;8235215;28;22032;-63
2023/06/27 16:55:04;;;;;;;1.85;1.63;;;;;28.50;96449.00;;;;8233549;28;20230;-63
2023/06/27 16:59:12;;;;;;;2.70;1.63;;;;;27.80;96451.00;;;;8219194;28;20270;-63
2023/06/27 17:03:19;;;;;;;1.88;1.50;;;;;27.40;96451.00;;;;8227226;28;20313;-63
2023/06/27 17:07:26;;;;;;;1.55;1.50;;;;;27.10;96439.00;;;;8223866;28;20231;-63
2023/06/27 17:11:32;;;;;;;3.03;1.70;;;;;26.80;96451.00;;;;8226143;28;20621;-63
2023/06/27 17:15:36;;;;;;;3.72;1.73;;;;;26.40;96446.00;;;;8222892;28;20211;-63
2023/06/27 17:19:44;;;;;;;2.53;1.60;;;;;26.20;96452.00;;;;8223383;28;20227;-62
2023/06/27 17:23:57;;;;;;;1.90;1.70;;;;;26.10;96456.00;;;;8227898;28;20231;-62
2023/06/27 17:28:01;;;;;;;1.88;1.67;;;;;26.00;96449.00;;;;8225928;28;20251;-61
2023/06/27 17:32:06;;;;;;;3.40;1.67;;;;;25.90;96445.00;;;;8226246;28;20274;-61
2023/06/27 17:36:12;;;;;;;2.00;1.80;;;;;25.70;96448.00;;;;8223505;28;20204;-63
2023/06/27 17:40:15;;;;;;;5.28;2.10;;;;;25.60;96449.00;;;;8222736;28;20295;-62
2023/06/27 17:44:19;;;;;;;2.85;1.50;;;;;25.60;96442.00;;;;8223759;28;20203;-62
2023/06/27 17:48:25;;;;;;;2.35;1.80;;;;;25.50;96441.00;;;;8223166;28;20314;-62
2023/06/27 17:52:29;;;;;;;3.50;1.75;;;;;25.30;96444.00;;;;8221488;28;20299;-62
2023/06/27 17:56:35;;;;;;;3.90;1.73;;;;;25.30;96439.00;;;;8222531;28;20234;-62
2023/06/27 18:00:40;;;;;;;2.28;1.70;;;;;25.40;96444.00;;;;8223412;28;20219;-62
2023/06/27 18:04:43;;;;;;;2.00;1.77;;;;;25.50;96448.00;;;;8223506;28;20742;-62
2023/06/27 18:08:48;;;;;;;3.70;1.80;;;;;25.30;96447.00;;;;8222648;28;20325;-62
2023/06/27 18:12:54;;;;;;;1.88;1.77;;;;;25.20;96453.00;;;;8223671;28;20290;-63
2023/06/27 18:17:00;;;;;;;1.80;1.70;;;;;25.10;96437.00;;;;8224164;28;20204;-62
2023/06/27 18:21:07;;;;;;;2.13;1.70;;;;;24.90;96439.00;;;;8221947;28;20891;-63
2023/06/27 18:25:11;;;;;;;2.15;1.77;;;;;24.60;96438.00;;;;8223247;28;20206;-62
2023/06/27 18:29:18;;;;;;;3.25;1.60;;;;;24.40;96429.00;;;;8221794;28;20317;-61
2023/06/27 18:33:22;;;;;;;2.10;1.58;;;;;24.20;96426.00;;;;8222657;28;20207;-62
2023/06/27 18:37:27;;;;;;;3.53;2.00;;;;;24.00;96431.00;;;;8230048;28;20424;-63
2023/06/27 18:41:31;;;;;;;2.58;1.60;;;;;23.90;96438.00;;;;8223003;28;20199;-61
2023/06/27 18:45:38;;;;;;;2.38;1.58;;;;;23.80;96438.00;;;;8226335;28;20584;-61
2023/06/27 18:49:45;;;;;;;6.07;2.45;;;;;23.60;96436.00;;;;8221759;28;20231;-62
2023/06/27 18:53:49;;;;;;;5.72;1.70;;;;;23.40;96434.00;;;;8223714;28;20210;-62
2023/06/27 18:57:56;;;;;;;2.35;1.60;;;;;23.10;96426.00;;;;8221216;28;20271;-62
2023/06/27 19:02:02;;;;;;;4.40;2.17;;;;;22.90;96423.00;;;;8221124;28;20688;-62
2023/06/27 19:06:06;;;;;;;1.80;1.70;;;;;22.80;96429.00;;;;8220403;28;20207;-61
2023/06/27 19:10:10;;;;;;;1.90;1.77;;;;;22.70;96426.00;;;;8214446;28;20270;-61
2023/06/27 19:14:20;;;;;;;4.95;1.77;;;;;22.70;96427.00;;;;8220585;28;20338;-61
2023/06/27 19:18:26;;;;;;;2.83;1.80;;;;;22.60;96429.00;;;;8215052;28;20683;-62
2023/06/27 19:22:31;;;;;;;3.05;1.70;;;;;22.40;96438.00;;;;8216672;28;20200;-62
2023/06/27 19:26:38;;;;;;;1.77;1.58;;;;;22.30;96447.00;;;;8208530;28;20630;-61
2023/06/27 19:30:43;;;;;;;1.92;1.80;;;;;22.10;96449.00;;;;8213447;28;20303;-61
2023/06/27 19:34:53;;;;;;;2.20;1.70;;;;;21.90;96448.00;;;;8217469;28;20195;-63
2023/06/27 19:38:58;;;;;;;2.08;1.80;;;;;21.80;96462.00;;;;8211387;28;20732;-61
2023/06/27 19:43:02;;;;;;;2.95;2.00;;;;;21.70;96461.00;;;;8209545;28;20291;-61
2023/06/27 19:47:07;;;;;;;3.38;1.95;;;;;21.60;96462.00;;;;8217195;28;20327;-61
2023/06/27 19:51:18;;;;;;;3.08;2.15;;;;;21.60;96464.00;;;;8213904;28;20524;-62
2023/06/27 19:55:22;;;;;;;2.72;1.80;;;;;21.50;96456.00;;;;8208578;28;20233;-62
2023/06/27 19:59:25;;;;;;;3.38;1.90;;;;;21.40;96450.00;;;;8212087;28;20211;-63
2023/06/27 20:03:30;;;;;;;2.20;2.08;;;;;21.40;96448.00;;;;8209080;28;20267;-61
2023/06/27 20:07:37;;;;;;;2.20;1.95;;;;;21.40;96451.00;;;;8218192;28;20318;-62
2023/06/27 20:11:50;;;;;;;2.30;2.10;;;;;21.20;96446.00;;;;8219535;28;20211;-64
2023/06/27 20:15:54;;;;;;;5.78;1.85;;;;;21.00;96454.00;;;;8226831;28;20262;-62
2023/06/27 20:19:59;;;;;;;1.92;1.73;;;;;20.80;96443.00;;;;8224754;28;20959;-63
2023/06/27 20:24:03;;;;;;;4.20;1.95;;;;;20.60;96441.00;;;;8224285;28;20817;-61
2023/06/27 20:28:09;;;;;;;5.32;2.05;;;;;20.50;96444.00;;;;8224743;28;20233;-61
2023/06/27 20:32:13;;;;;;;6.07;2.00;;;;;20.30;96450.00;;;;8220295;28;20283;-61